createdAt,value
2022-12-08T00:01:12.351Z,79.38
2022-12-08T00:03:39.965Z,79.50
2022-12-08T00:06:26.812Z,79.40
2022-12-08T00:09:12.723Z,79.38
2022-12-08T00:11:39.814Z,78.95
2022-12-08T00:14:06.927Z,79.56
2022-12-08T00:16:34.000Z,79.03
2022-12-08T00:19:01.073Z,79.79
2022-12-08T00:21:28.763Z,79.99
2022-12-08T00:23:56.482Z,79.69
2022-12-08T00:26:23.848Z,79.72
2022-12-08T00:28:50.884Z,79.83
2022-12-08T00:31:18.033Z,79.77
2022-12-08T00:33:45.229Z,79.54
2022-12-08T00:36:13.940Z,79.87
2022-12-08T00:38:41.654Z,79.72
2022-12-08T00:41:16.840Z,79.97
2022-12-08T00:43:43.937Z,79.57
2022-12-08T00:46:12.224Z,79.73
2022-12-08T00:48:39.348Z,79.39
2022-12-08T00:51:06.382Z,79.50
2022-12-08T00:53:33.481Z,79.16
2022-12-08T00:56:00.548Z,79.48
2022-12-08T00:58:27.599Z,79.91
2022-12-08T01:00:54.734Z,79.49
2022-12-08T01:03:21.913Z,79.28
2022-12-08T01:05:49.324Z,79.53
2022-12-08T01:08:17.035Z,78.90
2022-12-08T01:10:44.331Z,78.95
2022-12-08T01:13:11.385Z,79.01
2022-12-08T01:15:38.897Z,78.86
2022-12-08T01:18:06.136Z,78.79
2022-12-08T01:20:33.191Z,78.41
2022-12-08T01:23:00.253Z,78.76
2022-12-08T01:25:27.693Z,78.85
2022-12-08T01:27:54.843Z,78.73
2022-12-08T01:30:22.089Z,78.97
2022-12-08T01:32:49.126Z,79.17
2022-12-08T01:35:16.227Z,78.79
2022-12-08T01:37:43.280Z,79.04
2022-12-08T01:40:10.646Z,78.70
2022-12-08T01:42:38.328Z,79.17
2022-12-08T01:45:14.686Z,78.47
2022-12-08T01:47:45.876Z,78.31
2022-12-08T01:50:14.224Z,78.66
2022-12-08T01:52:44.132Z,78.27
2022-12-08T01:55:18.000Z,78.36
2022-12-08T01:57:51.313Z,78.45
2022-12-08T02:00:21.201Z,78.80
2022-12-08T02:02:58.803Z,78.44
2022-12-08T02:05:32.027Z,78.18
2022-12-08T02:08:00.546Z,78.32
2022-12-08T02:10:30.938Z,78.33
2022-12-08T02:12:58.912Z,78.47
2022-12-08T02:15:36.076Z,78.64
2022-12-08T02:18:03.152Z,78.08
2022-12-08T02:20:58.617Z,78.29
2022-12-08T02:23:35.136Z,78.48
2022-12-08T02:26:14.419Z,78.35
2022-12-08T02:29:06.301Z,78.29
2022-12-08T02:32:20.661Z,78.35
2022-12-08T02:35:12.812Z,78.18
2022-12-08T02:37:51.678Z,77.82
2022-12-08T02:40:31.538Z,78.28
2022-12-08T02:43:03.834Z,78.48
2022-12-08T02:45:38.166Z,78.22
2022-12-08T02:48:05.999Z,78.61
2022-12-08T02:50:33.075Z,78.54
2022-12-08T02:53:01.684Z,78.88
2022-12-08T02:55:39.965Z,78.68
2022-12-08T02:58:26.302Z,79.11
2022-12-08T03:01:09.157Z,79.72
2022-12-08T03:04:02.849Z,79.65
2022-12-08T03:06:29.877Z,80.03
2022-12-08T03:09:06.796Z,80.06
2022-12-08T03:11:38.955Z,79.94
2022-12-08T03:14:07.565Z,80.29
2022-12-08T03:16:37.323Z,80.69
2022-12-08T03:19:10.825Z,80.39
2022-12-08T03:21:38.928Z,80.63
2022-12-08T03:24:07.473Z,81.30
2022-12-08T03:26:39.714Z,80.85
2022-12-08T03:29:06.826Z,81.07
2022-12-08T03:31:39.832Z,80.92
2022-12-08T03:34:07.679Z,81.50
2022-12-08T03:36:34.957Z,81.58
2022-12-08T03:39:01.992Z,81.49
2022-12-08T03:41:29.188Z,82.20
2022-12-08T03:43:59.364Z,82.74
2022-12-08T03:48:55.153Z,83.11
2022-12-08T03:51:23.030Z,83.14
2022-12-08T03:53:50.282Z,82.82
2022-12-08T03:56:32.346Z,83.51
2022-12-08T03:58:59.990Z,83.25
2022-12-08T04:01:27.836Z,83.28
2022-12-08T04:03:55.245Z,83.35
2022-12-08T04:06:22.440Z,83.68
2022-12-08T04:08:50.448Z,83.46
2022-12-08T04:11:18.897Z,83.83
2022-12-08T04:13:46.372Z,83.80
2022-12-08T04:16:16.559Z,83.48
2022-12-08T04:18:43.780Z,83.58
2022-12-08T04:21:10.989Z,83.81
2022-12-08T04:23:38.197Z,83.65
2022-12-08T04:26:05.686Z,83.76
2022-12-08T04:28:32.841Z,83.54
2022-12-08T04:31:00.213Z,83.65
2022-12-08T04:33:27.420Z,83.36
2022-12-08T04:35:54.492Z,83.03
2022-12-08T04:38:21.579Z,83.10
2022-12-08T04:40:48.757Z,82.94
2022-12-08T04:43:15.877Z,83.03
2022-12-08T04:45:43.335Z,83.29
2022-12-08T04:48:13.177Z,82.76
2022-12-08T04:50:42.086Z,82.68
2022-12-08T04:53:09.976Z,82.68
2022-12-08T04:55:41.952Z,82.49
2022-12-08T04:58:12.245Z,82.57
2022-12-08T05:00:39.992Z,82.47
2022-12-08T05:03:07.098Z,82.57
2022-12-08T05:05:34.169Z,82.65
2022-12-08T05:08:01.349Z,82.36
2022-12-08T05:10:28.834Z,82.60
2022-12-08T05:12:55.983Z,82.13
2022-12-08T05:15:23.047Z,82.49
2022-12-08T05:17:50.308Z,82.64
2022-12-08T05:20:17.505Z,82.63
2022-12-08T05:22:44.591Z,82.20
2022-12-08T05:25:12.297Z,82.41
2022-12-08T05:27:39.317Z,82.37
2022-12-08T05:30:07.295Z,82.72
2022-12-08T05:32:34.576Z,83.19
2022-12-08T05:35:01.613Z,83.44
2022-12-08T05:37:28.726Z,83.00
2022-12-08T05:39:55.783Z,83.59
2022-12-08T05:42:24.970Z,83.44
2022-12-08T05:44:52.648Z,83.89
2022-12-08T05:47:19.713Z,83.43
2022-12-08T05:49:46.910Z,83.79
2022-12-08T05:52:14.015Z,84.29
2022-12-08T05:54:41.053Z,84.48
2022-12-08T05:57:08.305Z,84.26
2022-12-08T05:59:35.333Z,84.82
2022-12-08T06:02:02.584Z,85.12
2022-12-08T06:04:29.769Z,84.56
2022-12-08T06:06:56.808Z,84.18
2022-12-08T06:09:23.977Z,84.31
2022-12-08T06:11:51.015Z,84.31
2022-12-08T06:14:18.054Z,84.50
2022-12-08T06:16:45.186Z,84.56
2022-12-08T06:19:12.244Z,84.84
2022-12-08T06:21:39.334Z,84.66
2022-12-08T06:24:06.536Z,84.18
2022-12-08T06:26:35.880Z,84.53
2022-12-08T06:29:02.971Z,84.70
2022-12-08T06:31:30.096Z,84.56
2022-12-08T06:33:57.219Z,84.48
2022-12-08T06:36:26.396Z,84.75
2022-12-08T06:38:53.445Z,84.46
2022-12-08T06:41:20.870Z,84.18
2022-12-08T06:43:47.952Z,84.06
2022-12-08T06:46:17.709Z,83.78
2022-12-08T06:48:45.222Z,83.29
2022-12-08T06:51:20.627Z,83.06
2022-12-08T06:53:47.747Z,83.30
2022-12-08T06:56:15.956Z,83.55
2022-12-08T06:58:46.155Z,83.34
2022-12-08T07:01:17.729Z,83.44
2022-12-08T07:03:44.972Z,83.39
2022-12-08T07:06:18.125Z,82.97
2022-12-08T07:08:45.242Z,83.05
2022-12-08T07:11:16.678Z,82.91
2022-12-08T07:13:48.181Z,83.14
2022-12-08T07:16:15.318Z,83.10
2022-12-08T07:18:43.925Z,83.55
2022-12-08T07:21:13.122Z,83.48
2022-12-08T07:23:40.872Z,83.44
2022-12-08T07:26:10.113Z,83.23
2022-12-08T07:28:38.762Z,83.05
2022-12-08T07:31:06.880Z,83.49
2022-12-08T07:33:36.095Z,83.49
2022-12-08T07:36:05.472Z,83.30
2022-12-08T07:38:32.961Z,83.15
2022-12-08T07:41:00.817Z,82.80
2022-12-08T07:43:28.034Z,82.75
2022-12-08T07:45:55.214Z,83.26
2022-12-08T07:48:22.581Z,83.14
2022-12-08T07:50:49.651Z,82.69
2022-12-08T07:53:16.742Z,82.32
2022-12-08T07:55:44.398Z,82.32
2022-12-08T07:58:11.986Z,82.36
2022-12-08T08:00:39.203Z,82.04
2022-12-08T08:03:08.951Z,81.51
2022-12-08T08:05:36.218Z,81.66
2022-12-08T08:08:03.558Z,81.17
2022-12-08T08:10:30.813Z,81.51
2022-12-08T08:13:01.061Z,81.20
2022-12-08T08:15:28.840Z,81.76
2022-12-08T08:17:56.234Z,81.61
2022-12-08T08:20:23.458Z,80.71
2022-12-08T08:22:51.435Z,80.16
2022-12-08T08:25:19.527Z,80.20
2022-12-08T08:27:46.901Z,79.80
2022-12-08T08:30:20.029Z,79.79
2022-12-08T08:32:48.683Z,79.98
2022-12-08T08:35:15.934Z,79.93
2022-12-08T08:37:47.212Z,79.50
2022-12-08T08:40:17.574Z,79.50
2022-12-08T08:42:44.647Z,79.59
2022-12-08T08:45:11.810Z,79.41
2022-12-08T08:47:39.030Z,79.17
2022-12-08T08:50:07.134Z,79.25
2022-12-08T08:52:34.777Z,79.10
2022-12-08T08:55:01.947Z,79.08
2022-12-08T08:57:29.061Z,79.15
2022-12-08T08:59:56.164Z,78.74
2022-12-08T09:02:23.317Z,79.42
2022-12-08T09:04:50.466Z,78.78
2022-12-08T09:07:17.717Z,78.87
2022-12-08T09:09:44.747Z,78.11
2022-12-08T09:12:12.669Z,78.13
2022-12-08T09:14:40.228Z,78.47
2022-12-08T09:17:08.755Z,78.56
2022-12-08T09:19:36.167Z,76.91
2022-12-08T09:22:03.349Z,77.80
2022-12-08T09:24:30.473Z,77.96
2022-12-08T09:26:57.550Z,77.50
2022-12-08T09:29:25.603Z,77.02
2022-12-08T09:31:54.637Z,77.41
2022-12-08T09:34:21.985Z,76.81
2022-12-08T09:36:49.070Z,76.37
2022-12-08T09:39:16.133Z,77.14
2022-12-08T09:41:49.763Z,77.04
2022-12-08T09:44:34.811Z,76.43
2022-12-08T09:47:04.100Z,76.78
2022-12-08T09:49:37.213Z,75.99
2022-12-08T09:52:04.787Z,76.44
2022-12-08T09:54:34.665Z,75.84
2022-12-08T09:57:14.935Z,75.53
2022-12-08T09:59:49.354Z,75.48
2022-12-08T10:02:23.195Z,76.26
2022-12-08T10:04:50.669Z,75.72
2022-12-08T10:07:23.931Z,75.17
2022-12-08T10:10:28.412Z,75.81
2022-12-08T10:13:15.015Z,75.60
2022-12-08T10:15:51.270Z,75.50
2022-12-08T10:18:28.117Z,75.61
2022-12-08T10:20:59.208Z,75.14
2022-12-08T10:23:36.983Z,75.31
2022-12-08T10:26:12.796Z,74.67
2022-12-08T10:28:44.797Z,75.02
2022-12-08T10:31:19.030Z,73.64
2022-12-08T10:33:47.551Z,74.22
2022-12-08T10:36:14.651Z,74.63
2022-12-08T10:38:41.775Z,74.56
2022-12-08T10:41:13.115Z,74.73
2022-12-08T10:44:00.948Z,74.38
2022-12-08T10:46:29.079Z,74.71
2022-12-08T10:49:11.222Z,73.45
2022-12-08T10:51:40.804Z,73.59
2022-12-08T10:54:29.436Z,72.89
2022-12-08T10:56:57.698Z,72.67
2022-12-08T10:59:25.716Z,73.02
2022-12-08T11:01:55.295Z,73.38
2022-12-08T11:04:36.203Z,72.77
2022-12-08T11:07:05.451Z,72.87
2022-12-08T11:09:50.855Z,73.06
2022-12-08T11:12:20.377Z,73.26
2022-12-08T11:14:50.539Z,73.05
2022-12-08T11:17:24.586Z,73.41
2022-12-08T11:20:14.822Z,73.33
2022-12-08T11:22:43.763Z,73.45
2022-12-08T11:25:15.018Z,73.37
2022-12-08T11:27:44.696Z,73.28
2022-12-08T11:30:22.051Z,73.37
2022-12-08T11:32:53.324Z,72.71
2022-12-08T11:35:33.919Z,73.09
2022-12-08T11:38:25.203Z,72.97
2022-12-08T11:41:10.946Z,73.06
2022-12-08T11:43:55.744Z,72.85
2022-12-08T11:46:29.121Z,72.16
2022-12-08T11:49:12.575Z,72.72
2022-12-08T11:51:48.441Z,72.51
2022-12-08T11:54:25.403Z,72.73
2022-12-08T11:57:03.924Z,72.61
2022-12-08T11:59:46.130Z,72.37
2022-12-08T12:02:34.373Z,71.50
2022-12-08T12:05:47.526Z,72.04
2022-12-08T12:08:28.216Z,72.15
2022-12-08T12:11:10.512Z,72.79
2022-12-08T12:14:00.347Z,72.21
2022-12-08T12:17:05.382Z,72.18
2022-12-08T12:19:37.734Z,72.72
2022-12-08T12:22:15.763Z,72.49
2022-12-08T12:24:44.531Z,72.89
2022-12-08T12:27:14.649Z,71.55
2022-12-08T12:29:52.263Z,72.31
2022-12-08T12:32:23.355Z,71.49
2022-12-08T12:34:53.730Z,70.97
2022-12-08T12:37:26.696Z,72.06
2022-12-08T12:39:58.521Z,71.10
2022-12-08T12:42:39.388Z,71.60
2022-12-08T12:45:12.725Z,71.10
2022-12-08T12:47:56.343Z,71.18
2022-12-08T12:50:33.539Z,70.58
2022-12-08T12:53:26.384Z,71.45
2022-12-08T12:56:02.546Z,71.49
2022-12-08T12:58:29.587Z,71.88
2022-12-08T13:01:12.463Z,71.80
2022-12-08T13:03:48.550Z,71.55
2022-12-08T13:06:32.553Z,71.50
2022-12-08T13:09:00.231Z,71.15
2022-12-08T13:11:27.299Z,71.25
2022-12-08T13:14:03.754Z,71.33
2022-12-08T13:16:38.680Z,70.82
2022-12-08T13:19:13.184Z,71.21
2022-12-08T13:21:40.508Z,71.18
2022-12-08T13:24:10.534Z,71.03
2022-12-08T13:26:48.993Z,71.32
2022-12-08T13:29:28.420Z,70.64
2022-12-08T13:31:57.181Z,70.85
2022-12-08T13:34:37.184Z,71.03
2022-12-08T13:37:16.081Z,71.09
2022-12-08T13:39:56.610Z,70.65
2022-12-08T13:42:36.398Z,70.26
2022-12-08T13:46:12.238Z,70.42
2022-12-08T13:57:24.693Z,70.24
2022-12-08T13:59:51.733Z,70.33
2022-12-08T14:02:29.475Z,70.86
2022-12-08T14:07:43.934Z,71.05
2022-12-08T14:10:17.974Z,70.46
2022-12-08T14:12:47.183Z,70.44
2022-12-08T14:15:15.594Z,71.06
2022-12-08T14:17:51.609Z,70.98
2022-12-08T14:20:30.287Z,70.58
2022-12-08T14:22:59.345Z,70.29
2022-12-08T14:25:30.058Z,70.91
2022-12-08T14:28:02.985Z,70.51
2022-12-08T14:30:34.208Z,70.94
2022-12-08T14:33:03.338Z,70.48
2022-12-08T14:35:38.502Z,71.39
2022-12-08T14:38:12.471Z,70.91
2022-12-08T14:40:48.388Z,71.33
2022-12-08T14:43:19.959Z,71.20
2022-12-08T14:45:47.847Z,71.49
2022-12-08T14:48:19.033Z,71.71
2022-12-08T14:50:57.622Z,71.55
2022-12-08T14:53:25.181Z,71.40
2022-12-08T14:55:52.412Z,70.90
2022-12-08T14:58:27.969Z,71.99
2022-12-08T15:00:59.152Z,71.40
2022-12-08T15:03:28.681Z,71.61
2022-12-08T15:06:01.046Z,71.49
2022-12-08T15:08:28.281Z,71.57
2022-12-08T15:11:27.393Z,71.53
2022-12-08T15:13:54.585Z,71.54
2022-12-08T15:16:37.252Z,71.41
2022-12-08T15:19:16.955Z,71.52
2022-12-08T15:21:44.747Z,71.54
2022-12-08T15:24:12.873Z,71.87
2022-12-08T15:26:46.298Z,71.60
2022-12-08T15:29:27.957Z,71.68
2022-12-08T15:31:57.921Z,71.75
2022-12-08T15:34:25.221Z,71.79
2022-12-08T15:36:53.843Z,71.85
2022-12-08T15:39:27.923Z,71.61
2022-12-08T15:41:55.055Z,71.98
2022-12-08T15:44:22.893Z,71.90
2022-12-08T15:46:50.307Z,71.84
2022-12-08T15:49:19.029Z,71.95
2022-12-08T15:51:46.263Z,71.83
2022-12-08T15:54:14.227Z,71.83
2022-12-08T15:57:17.299Z,72.13
2022-12-08T15:59:34.230Z,72.37
2022-12-08T16:02:01.301Z,72.12
2022-12-08T16:05:17.893Z,71.98
2022-12-08T16:07:24.918Z,72.38
2022-12-08T16:09:52.141Z,72.64
2022-12-08T16:13:40.483Z,72.63
2022-12-08T16:18:17.231Z,72.71
2022-12-08T16:21:07.552Z,72.64
2022-12-08T16:23:42.856Z,72.77
2022-12-08T16:26:28.635Z,72.97
2022-12-08T16:29:00.348Z,73.00
2022-12-08T16:31:27.453Z,72.89
2022-12-08T16:33:54.555Z,72.91
2022-12-08T16:36:21.609Z,72.70
2022-12-08T16:38:48.663Z,72.55
2022-12-08T16:41:35.387Z,72.66
2022-12-08T16:44:03.964Z,73.02
2022-12-08T16:46:31.520Z,73.07
2022-12-08T16:48:58.978Z,72.81
2022-12-08T16:51:27.349Z,72.78
2022-12-08T16:53:58.350Z,72.92
2022-12-08T16:56:32.150Z,73.09
2022-12-08T16:58:59.853Z,72.99
2022-12-08T17:01:26.969Z,72.93
2022-12-08T17:06:41.233Z,73.04
2022-12-08T17:09:08.252Z,72.94
2022-12-08T17:11:42.309Z,73.10
2022-12-08T17:14:11.617Z,72.94
2022-12-08T17:16:38.940Z,72.73
2022-12-08T17:19:06.058Z,73.18
2022-12-08T17:21:33.119Z,73.02
2022-12-08T17:24:00.295Z,73.39
2022-12-08T17:26:27.361Z,73.39
2022-12-08T17:29:01.827Z,73.23
2022-12-08T17:31:31.259Z,73.10
2022-12-08T17:34:03.167Z,73.47
2022-12-08T17:36:30.534Z,73.21
2022-12-08T17:38:59.386Z,72.75
2022-12-08T17:41:26.931Z,73.29
2022-12-08T17:43:54.049Z,73.65
2022-12-08T17:46:22.237Z,72.73
2022-12-08T17:48:49.662Z,73.35
2022-12-08T17:51:16.821Z,73.14
2022-12-08T17:53:43.926Z,72.79
2022-12-08T17:56:16.800Z,73.05
2022-12-08T17:58:44.888Z,72.72
2022-12-08T18:01:13.136Z,72.82
2022-12-08T18:03:40.314Z,73.10
2022-12-08T18:06:12.378Z,72.75
2022-12-08T18:08:39.781Z,72.38
2022-12-08T18:11:11.984Z,72.51
2022-12-08T18:13:39.110Z,72.53
2022-12-08T18:16:06.413Z,72.40
2022-12-08T18:18:33.531Z,72.63
2022-12-08T18:21:00.561Z,72.35
2022-12-08T18:23:27.804Z,71.78
2022-12-08T18:25:54.872Z,71.89
2022-12-08T18:28:21.924Z,71.86
2022-12-08T18:30:49.244Z,71.95
2022-12-08T18:33:16.369Z,71.78
2022-12-08T18:35:43.454Z,71.92
2022-12-08T18:38:10.482Z,71.93
2022-12-08T18:40:37.683Z,71.55
2022-12-08T18:43:04.726Z,71.30
2022-12-08T18:45:32.076Z,71.13
2022-12-08T18:47:59.134Z,71.25
2022-12-08T18:50:26.375Z,71.24
2022-12-08T18:52:53.419Z,70.87
2022-12-08T18:55:20.687Z,71.27
2022-12-08T18:57:47.857Z,71.14
2022-12-08T19:00:17.352Z,71.06
2022-12-08T19:02:44.784Z,71.08
2022-12-08T19:05:13.412Z,70.71
2022-12-08T19:07:42.475Z,71.36
2022-12-08T19:10:10.635Z,71.21
2022-12-08T19:12:37.826Z,71.00
2022-12-08T19:15:05.766Z,71.16
2022-12-08T19:17:33.274Z,71.85
2022-12-08T19:20:00.307Z,71.80
2022-12-08T19:22:27.392Z,71.67
2022-12-08T19:24:54.438Z,72.28
2022-12-08T19:27:21.546Z,72.26
2022-12-08T19:29:48.670Z,72.16
2022-12-08T19:32:15.745Z,72.48
2022-12-08T19:34:43.067Z,72.36
2022-12-08T19:37:12.519Z,72.50
2022-12-08T19:39:58.349Z,72.52
2022-12-08T19:42:43.783Z,72.40
2022-12-08T19:45:14.167Z,72.11
2022-12-08T19:47:41.591Z,72.57
2022-12-08T19:50:28.340Z,72.33
2022-12-08T19:52:56.353Z,72.63
2022-12-08T19:55:24.443Z,72.99
2022-12-08T19:57:52.436Z,73.17
2022-12-08T20:00:20.254Z,73.62
2022-12-08T20:02:47.875Z,73.58
2022-12-08T20:05:15.568Z,73.68
2022-12-08T20:07:42.883Z,73.73
2022-12-08T20:10:22.778Z,74.31
2022-12-08T20:12:49.925Z,74.20
2022-12-08T20:15:17.177Z,74.42
2022-12-08T20:17:44.260Z,74.88
2022-12-08T20:20:13.169Z,74.36
2022-12-08T20:22:40.723Z,74.80
2022-12-08T20:25:12.808Z,74.57
2022-12-08T20:27:40.574Z,74.69
2022-12-08T20:30:13.299Z,74.58
2022-12-08T20:32:43.911Z,73.77
2022-12-08T20:35:10.956Z,74.19
2022-12-08T20:37:38.305Z,74.23
2022-12-08T20:40:06.155Z,74.41
2022-12-08T20:42:33.359Z,74.23
2022-12-08T20:45:00.453Z,74.13
2022-12-08T20:47:27.909Z,74.45
2022-12-08T20:49:55.135Z,74.20
2022-12-08T20:52:22.244Z,74.25
2022-12-08T20:54:49.417Z,74.26
2022-12-08T20:57:16.639Z,74.22
2022-12-08T20:59:43.873Z,73.72
2022-12-08T21:02:11.392Z,73.60
2022-12-08T21:04:38.896Z,74.19
2022-12-08T21:07:06.143Z,74.32
2022-12-08T21:09:33.444Z,74.74
2022-12-08T21:12:00.781Z,74.85
2022-12-08T21:14:27.932Z,75.13
2022-12-08T21:16:56.172Z,75.44
2022-12-08T21:19:24.110Z,74.97
2022-12-08T21:21:51.276Z,75.73
2022-12-08T21:24:18.789Z,75.75
2022-12-08T21:26:45.993Z,75.77
2022-12-08T21:29:13.137Z,75.93
2022-12-08T21:31:40.634Z,76.33
2022-12-08T21:34:07.962Z,76.41
2022-12-08T21:36:35.114Z,76.14
2022-12-08T21:39:02.940Z,75.55
2022-12-08T21:41:48.988Z,75.80
2022-12-08T21:44:20.166Z,75.92
2022-12-08T21:46:47.479Z,76.34
2022-12-08T21:49:14.834Z,76.42
2022-12-08T21:51:42.399Z,76.66
2022-12-08T21:54:16.695Z,77.04
2022-12-08T21:56:47.702Z,76.99
2022-12-08T21:59:15.545Z,76.71
2022-12-08T22:01:45.978Z,76.94
2022-12-08T22:04:16.915Z,76.96
2022-12-08T22:06:44.191Z,76.38
2022-12-08T22:09:13.490Z,76.94
2022-12-08T22:11:41.469Z,77.06
2022-12-08T22:14:14.036Z,76.84
2022-12-08T22:16:43.221Z,76.91
2022-12-08T22:19:10.686Z,76.77
2022-12-08T22:21:38.467Z,76.81
2022-12-08T22:24:06.351Z,76.26
2022-12-08T22:26:33.984Z,76.52
2022-12-08T22:29:01.338Z,76.47
2022-12-08T22:31:29.130Z,76.73
2022-12-08T22:33:58.855Z,76.62
2022-12-08T22:36:27.448Z,76.26
2022-12-08T22:38:55.270Z,76.63
2022-12-08T22:41:22.751Z,76.94
2022-12-08T22:43:50.472Z,76.99
2022-12-08T22:46:22.908Z,76.83
2022-12-08T22:48:51.421Z,77.25
2022-12-08T22:51:19.337Z,77.15
2022-12-08T22:53:47.499Z,77.05
2022-12-08T22:56:16.031Z,77.32
2022-12-08T22:58:44.170Z,77.35
2022-12-08T23:01:31.923Z,77.38
2022-12-08T23:04:00.127Z,77.51
2022-12-08T23:06:28.490Z,77.56
2022-12-08T23:08:59.252Z,77.42
2022-12-08T23:11:30.327Z,77.71
2022-12-08T23:14:00.347Z,77.83
2022-12-08T23:16:28.099Z,77.98
2022-12-08T23:18:55.442Z,77.88
2022-12-08T23:21:22.581Z,78.31
2022-12-08T23:23:49.660Z,78.64
2022-12-08T23:26:22.926Z,78.45
2022-12-08T23:28:50.562Z,78.43
2022-12-08T23:31:18.777Z,78.44
2022-12-08T23:33:46.149Z,79.03
2022-12-08T23:36:14.748Z,78.55
2022-12-08T23:38:42.104Z,78.13
2022-12-08T23:41:12.323Z,78.57
2022-12-08T23:43:50.265Z,78.90
2022-12-08T23:46:19.683Z,78.72
2022-12-08T23:48:47.392Z,78.47
2022-12-08T23:51:14.546Z,78.89
2022-12-08T23:53:41.751Z,78.34
2022-12-08T23:56:12.151Z,78.77
2022-12-08T23:58:40.130Z,78.92
